AIRPORT ID: KTHM

DATE: 2021-12-01 ZULU TIME: 14.55 LOCAL TIME: 7.55


METAR KTHM 011455Z AUTO 20012G16KT 10SM 15/08 A3011

ALTIMETER: A3011 Q1020

DENSITY ALT: 2800 Ft

WIND DIRECT: 220

WIND SPEED: 12 Gust

WIND CONDITIONS:

VISIBILTY: 10SM 9999M

TEMPERATURE: 59 F 15 C

DEW POINT: 46 F 8 C

HUMID: 63%

LCL: 1,000-3,000 feet

RADIO CHECK: 0

ADVISARIES: 0

GREETINGS: 0

CONVERSATIONS: 0